createdAt,value
2023-03-10T00:00:01.157Z,2.6
2023-03-10T00:01:01.273Z,2.6
2023-03-10T00:02:01.148Z,2.7
2023-03-10T00:03:01.066Z,2.6
2023-03-10T00:04:01.171Z,2.7
2023-03-10T00:05:01.071Z,2.7
2023-03-10T00:06:00.527Z,2.6
2023-03-10T00:07:00.190Z,2.6
2023-03-10T00:08:00.141Z,2.7
2023-03-10T00:08:59.971Z,2.7
2023-03-10T00:09:59.578Z,2.7
2023-03-10T00:11:02.170Z,2.7
2023-03-10T00:12:01.127Z,2.7
2023-03-10T00:13:01.133Z,2.7
2023-03-10T00:14:01.152Z,2.7
2023-03-10T00:15:01.129Z,2.7
2023-03-10T00:16:01.302Z,2.7
2023-03-10T00:17:02.493Z,2.7
2023-03-10T00:18:02.113Z,2.7
2023-03-10T00:19:01.737Z,2.7
2023-03-10T00:20:02.416Z,2.7
2023-03-10T00:21:01.485Z,2.8
2023-03-10T00:22:01.070Z,2.8
2023-03-10T00:23:01.089Z,2.8
2023-03-10T00:24:01.099Z,2.8
2023-03-10T00:25:01.105Z,2.8
2023-03-10T00:26:01.479Z,2.8
2023-03-10T00:27:01.115Z,2.8
2023-03-10T00:28:01.127Z,2.8
2023-03-10T00:29:01.124Z,2.8
2023-03-10T00:30:01.130Z,2.8
2023-03-10T00:31:01.568Z,2.8
2023-03-10T00:32:01.778Z,2.8
2023-03-10T00:33:01.533Z,2.8
2023-03-10T00:34:01.158Z,2.8
2023-03-10T00:35:01.167Z,2.8
2023-03-10T00:36:01.466Z,2.8
2023-03-10T00:37:01.075Z,2.8
2023-03-10T00:38:01.092Z,2.8
2023-03-10T00:39:01.318Z,2.8
2023-03-10T00:40:01.324Z,2.8
2023-03-10T00:41:02.469Z,2.8
2023-03-10T00:42:01.113Z,2.8
2023-03-10T00:43:01.065Z,2.8
2023-03-10T00:44:01.125Z,2.8
2023-03-10T00:45:01.142Z,2.8
2023-03-10T00:46:01.270Z,2.8
2023-03-10T00:47:01.590Z,2.8
2023-03-10T00:48:01.404Z,2.8
2023-03-10T00:49:01.431Z,2.8
2023-03-10T00:50:02.161Z,2.8
2023-03-10T00:51:02.300Z,2.8
2023-03-10T00:52:01.986Z,2.8
2023-03-10T00:53:03.078Z,2.8
2023-03-10T00:54:01.300Z,2.8
2023-03-10T00:55:01.068Z,2.8
2023-03-10T00:56:01.446Z,2.8
2023-03-10T00:57:02.469Z,2.8
2023-03-10T00:58:01.428Z,2.8
2023-03-10T00:59:04.471Z,2.8
2023-03-10T01:00:02.091Z,2.8
2023-03-10T01:01:01.133Z,2.7
2023-03-10T01:02:02.610Z,2.7
2023-03-10T01:03:01.245Z,2.7
2023-03-10T01:04:01.509Z,2.7
2023-03-10T01:05:01.762Z,2.7
2023-03-10T01:06:04.113Z,2.7
2023-03-10T01:07:01.157Z,2.7
2023-03-10T01:08:01.799Z,2.7
2023-03-10T01:09:01.211Z,2.7
2023-03-10T01:10:00.853Z,2.7
2023-03-10T01:11:06.152Z,2.7
2023-03-10T01:12:01.220Z,2.7
2023-03-10T01:13:01.132Z,2.7
2023-03-10T01:14:01.092Z,2.7
2023-03-10T01:15:01.128Z,2.7
2023-03-10T01:16:08.862Z,2.7
2023-03-10T01:17:01.094Z,2.7
2023-03-10T01:18:01.144Z,2.7
2023-03-10T01:19:01.130Z,2.6
2023-03-10T01:20:01.134Z,2.7
2023-03-10T01:21:12.918Z,2.7
2023-03-10T01:22:01.150Z,2.7
2023-03-10T01:23:00.608Z,2.7
2023-03-10T01:24:00.356Z,2.7
2023-03-10T01:25:00.169Z,2.7
2023-03-10T01:26:13.650Z,2.7
2023-03-10T01:27:01.092Z,2.7
2023-03-10T01:28:01.114Z,2.7
2023-03-10T01:29:01.093Z,2.7
2023-03-10T01:30:01.528Z,2.7
2023-03-10T01:31:01.270Z,2.7
2023-03-10T01:32:01.106Z,2.7
2023-03-10T01:33:01.129Z,2.7
2023-03-10T01:34:01.056Z,2.7
2023-03-10T01:35:01.071Z,2.7
2023-03-10T01:36:01.152Z,2.7
2023-03-10T01:37:01.143Z,2.8
2023-03-10T01:38:01.171Z,2.8
2023-03-10T01:39:01.191Z,2.7
2023-03-10T01:40:01.170Z,2.8
2023-03-10T01:41:01.793Z,2.7
2023-03-10T01:42:01.976Z,2.7
2023-03-10T01:43:02.135Z,2.7
2023-03-10T01:44:01.470Z,2.7
2023-03-10T01:45:01.088Z,2.8
2023-03-10T01:46:01.091Z,2.7
2023-03-10T01:47:01.167Z,2.7
2023-03-10T01:48:01.109Z,2.8
2023-03-10T01:49:01.116Z,2.8
2023-03-10T01:50:01.878Z,2.7
2023-03-10T01:51:01.139Z,2.8
2023-03-10T01:52:02.042Z,2.7
2023-03-10T01:53:01.155Z,2.7
2023-03-10T01:54:01.138Z,2.8
2023-03-10T01:55:01.147Z,2.8
2023-03-10T01:56:01.161Z,2.8
2023-03-10T01:57:01.161Z,2.8
2023-03-10T01:58:01.820Z,2.8
2023-03-10T01:59:01.069Z,2.8
2023-03-10T02:00:01.710Z,2.8
2023-03-10T02:01:01.269Z,2.8
2023-03-10T02:02:01.172Z,2.8
2023-03-10T02:03:02.138Z,2.8
2023-03-10T02:04:01.863Z,2.8
2023-03-10T02:05:01.106Z,2.8
2023-03-10T02:06:01.179Z,2.8
2023-03-10T02:07:01.952Z,2.8
2023-03-10T02:08:01.132Z,2.8
2023-03-10T02:09:01.055Z,2.8
2023-03-10T02:10:01.144Z,2.8
2023-03-10T02:11:01.137Z,2.8
2023-03-10T02:12:01.963Z,2.8
2023-03-10T02:13:01.982Z,2.8
2023-03-10T02:14:02.639Z,2.8
2023-03-10T02:15:01.388Z,2.8
2023-03-10T02:16:01.145Z,2.8
2023-03-10T02:17:01.890Z,2.8
2023-03-10T02:18:03.916Z,2.8
2023-03-10T02:19:01.133Z,2.8
2023-03-10T02:20:01.111Z,2.8
2023-03-10T02:21:01.864Z,2.8
2023-03-10T02:22:02.034Z,2.8
2023-03-10T02:23:01.543Z,2.8
2023-03-10T02:24:01.980Z,2.9
2023-03-10T02:25:01.431Z,2.9
2023-03-10T02:26:03.079Z,2.8
2023-03-10T02:27:01.158Z,2.9
2023-03-10T02:28:01.197Z,2.9
2023-03-10T02:29:01.973Z,2.9
2023-03-10T02:30:01.384Z,2.9
2023-03-10T02:31:01.453Z,2.9
2023-03-10T02:32:01.096Z,2.9
2023-03-10T02:33:01.079Z,2.9
2023-03-10T02:34:01.098Z,2.9
2023-03-10T02:35:01.181Z,3
2023-03-10T02:36:01.170Z,3
2023-03-10T02:37:01.512Z,3
2023-03-10T02:38:01.114Z,3
2023-03-10T02:39:01.132Z,3
2023-03-10T02:40:01.125Z,3
2023-03-10T02:41:01.146Z,3
2023-03-10T02:42:01.153Z,3
2023-03-10T02:43:01.453Z,3
2023-03-10T02:44:01.564Z,3
2023-03-10T02:45:02.613Z,3
2023-03-10T02:46:01.319Z,3
2023-03-10T02:47:03.059Z,3
2023-03-10T02:48:02.085Z,3
2023-03-10T02:49:01.761Z,3
2023-03-10T02:50:01.778Z,3
2023-03-10T02:51:01.484Z,3
2023-03-10T02:52:05.535Z,3
2023-03-10T02:53:01.232Z,3
2023-03-10T02:54:16.499Z,3.1
2023-03-10T02:55:01.903Z,3.1
2023-03-10T02:56:01.118Z,3
2023-03-10T02:57:08.608Z,3
2023-03-10T02:58:01.129Z,3
2023-03-10T02:59:02.403Z,3.1
2023-03-10T03:00:01.580Z,3.1
2023-03-10T03:01:01.507Z,3.1
2023-03-10T03:02:11.913Z,3.1
2023-03-10T03:03:01.302Z,3.1
2023-03-10T03:04:01.111Z,3.1
2023-03-10T03:05:01.073Z,3.1
2023-03-10T03:06:01.081Z,3.1
2023-03-10T03:07:15.503Z,3.1
2023-03-10T03:08:01.499Z,3.1
2023-03-10T03:09:01.242Z,3.1
2023-03-10T03:10:01.051Z,3.1
2023-03-10T03:11:01.116Z,3.1
2023-03-10T03:12:01.119Z,3.1
2023-03-10T03:13:01.047Z,3.1
2023-03-10T03:14:01.139Z,3.1
2023-03-10T03:15:01.070Z,3.1
2023-03-10T03:16:01.163Z,3.1
2023-03-10T03:17:01.251Z,3.1
2023-03-10T03:18:02.190Z,3.1
2023-03-10T03:19:02.152Z,3.2
2023-03-10T03:20:01.878Z,3.2
2023-03-10T03:21:01.784Z,3.2
2023-03-10T03:22:01.101Z,3.2
2023-03-10T03:23:01.102Z,3.2
2023-03-10T03:24:01.483Z,3.3
2023-03-10T03:25:01.093Z,3.3
2023-03-10T03:26:01.113Z,3.3
2023-03-10T03:27:01.110Z,3.4
2023-03-10T03:28:01.120Z,3.4
2023-03-10T03:29:00.813Z,3.5
2023-03-10T03:30:00.473Z,3.5
2023-03-10T03:31:00.217Z,3.5
2023-03-10T03:32:00.261Z,3.5
2023-03-10T03:33:00.006Z,3.5
2023-03-10T03:34:00.369Z,3.6
2023-03-10T03:35:00.026Z,3.6
2023-03-10T03:35:59.780Z,3.6
2023-03-10T03:37:02.487Z,3.6
2023-03-10T03:38:01.374Z,3.6
2023-03-10T03:39:02.061Z,3.7
2023-03-10T03:40:02.165Z,3.8
2023-03-10T03:41:01.093Z,3.8
2023-03-10T03:42:01.734Z,3.9
2023-03-10T03:43:01.108Z,4
2023-03-10T03:44:01.029Z,4
2023-03-10T03:45:01.451Z,4
2023-03-10T03:46:02.485Z,4.1
2023-03-10T03:47:02.051Z,4.2
2023-03-10T03:48:01.163Z,4.2
2023-03-10T03:49:00.718Z,4.3
2023-03-10T03:50:00.430Z,4.3
2023-03-10T03:51:00.146Z,4.4
2023-03-10T03:51:59.817Z,4.5
2023-03-10T03:53:01.481Z,4.5
2023-03-10T03:54:01.327Z,4.6
2023-03-10T03:55:02.339Z,4.6
2023-03-10T03:56:02.292Z,4.7
2023-03-10T03:57:01.096Z,4.7
2023-03-10T03:58:01.059Z,4.8
2023-03-10T03:59:01.173Z,4.9
2023-03-10T04:00:01.135Z,4.9
2023-03-10T04:01:01.116Z,4.9
2023-03-10T04:02:01.186Z,4.9
2023-03-10T04:03:01.513Z,5
2023-03-10T04:04:01.139Z,5
2023-03-10T04:05:01.947Z,5
2023-03-10T04:06:01.546Z,5
2023-03-10T04:07:01.227Z,5.1
2023-03-10T04:08:01.992Z,5.1
2023-03-10T04:09:01.263Z,5.1
2023-03-10T04:10:01.342Z,5.1
2023-03-10T04:11:02.018Z,5.2
2023-03-10T04:12:01.824Z,5.3
2023-03-10T04:13:01.110Z,5.3
2023-03-10T04:14:00.741Z,5.3
2023-03-10T04:15:00.338Z,5.4
2023-03-10T04:16:00.061Z,5.4
2023-03-10T04:16:59.667Z,5.5
2023-03-10T04:18:01.343Z,5.5
2023-03-10T04:19:01.573Z,5.5
2023-03-10T04:20:07.422Z,5.5
2023-03-10T04:21:02.197Z,5.5
2023-03-10T04:22:01.148Z,5.4
2023-03-10T04:23:04.225Z,5.4
2023-03-10T04:24:01.323Z,5.4
2023-03-10T04:25:00.975Z,5.3
2023-03-10T04:26:01.113Z,5.3
2023-03-10T04:27:01.101Z,5.3
2023-03-10T04:28:05.877Z,5.4
2023-03-10T04:29:01.131Z,5.4
2023-03-10T04:30:01.111Z,5.5
2023-03-10T04:31:01.175Z,5.5
2023-03-10T04:32:05.493Z,5.5
2023-03-10T04:33:09.993Z,5.6
2023-03-10T04:34:03.959Z,5.6
2023-03-10T04:35:01.154Z,5.6
2023-03-10T04:36:01.200Z,5.6
2023-03-10T04:37:01.394Z,5.6
2023-03-10T04:38:11.920Z,5.6
2023-03-10T04:39:02.147Z,5.6
2023-03-10T04:40:01.168Z,5.6
2023-03-10T04:41:01.787Z,5.6
2023-03-10T04:42:01.093Z,5.6
2023-03-10T04:43:14.546Z,5.6
2023-03-10T04:44:01.088Z,5.5
2023-03-10T04:45:01.467Z,5.6
2023-03-10T04:46:01.114Z,5.6
2023-03-10T04:47:01.048Z,5.6
2023-03-10T04:48:01.110Z,5.6
2023-03-10T04:49:01.146Z,5.6
2023-03-10T04:50:01.124Z,5.7
2023-03-10T04:51:01.137Z,5.7
2023-03-10T04:52:01.547Z,5.8
2023-03-10T04:53:01.138Z,5.8
2023-03-10T04:54:01.149Z,5.8
2023-03-10T04:55:01.844Z,5.8
2023-03-10T04:56:01.152Z,5.7
2023-03-10T04:57:01.124Z,5.8
2023-03-10T04:58:01.078Z,5.8
2023-03-10T04:59:01.087Z,5.7
2023-03-10T05:00:03.304Z,5.7
2023-03-10T05:01:03.514Z,5.7
2023-03-10T05:02:00.775Z,5.7
2023-03-10T05:03:00.506Z,5.7
2023-03-10T05:04:00.182Z,5.8
2023-03-10T05:05:00.376Z,5.8
2023-03-10T05:05:59.932Z,5.8
2023-03-10T05:06:59.543Z,5.8
2023-03-10T05:08:01.172Z,5.8
2023-03-10T05:09:01.328Z,5.8
2023-03-10T05:10:02.509Z,5.9
2023-03-10T05:11:02.050Z,5.9
2023-03-10T05:12:01.453Z,5.9
2023-03-10T05:13:01.211Z,5.9
2023-03-10T05:14:01.494Z,5.8
2023-03-10T05:15:01.293Z,5.9
2023-03-10T05:16:02.621Z,5.9
2023-03-10T05:17:01.042Z,5.8
2023-03-10T05:18:01.090Z,5.8
2023-03-10T05:19:01.058Z,5.8
2023-03-10T05:20:01.130Z,5.8
2023-03-10T05:21:01.114Z,5.8
2023-03-10T05:22:01.217Z,5.8
2023-03-10T05:23:00.922Z,5.9
2023-03-10T05:24:01.136Z,5.8
2023-03-10T05:25:01.132Z,5.9
2023-03-10T05:26:01.061Z,5.9
2023-03-10T05:27:01.060Z,5.9
2023-03-10T05:28:01.200Z,5.9
2023-03-10T05:29:01.172Z,5.9
2023-03-10T05:30:01.167Z,6
2023-03-10T05:31:01.959Z,6
2023-03-10T05:32:01.471Z,6
2023-03-10T05:33:01.187Z,6.1
2023-03-10T05:34:01.810Z,6.1
2023-03-10T05:35:01.116Z,6
2023-03-10T05:36:01.144Z,6
2023-03-10T05:37:01.237Z,6
2023-03-10T05:38:01.118Z,6
2023-03-10T05:39:01.149Z,6
2023-03-10T05:40:01.188Z,6
2023-03-10T05:41:01.459Z,6
2023-03-10T05:42:00.930Z,6
2023-03-10T05:43:00.739Z,6.1
2023-03-10T05:44:00.441Z,6.1
2023-03-10T05:45:00.157Z,6.1
2023-03-10T05:45:59.917Z,6.1
2023-03-10T05:46:59.764Z,6.1
2023-03-10T05:48:01.752Z,6.1
2023-03-10T05:49:01.757Z,6.1
2023-03-10T05:50:01.264Z,6.1
2023-03-10T05:51:01.250Z,6.1
2023-03-10T05:52:01.881Z,6.1
2023-03-10T05:53:01.112Z,6.1
2023-03-10T05:54:01.230Z,6.1
2023-03-10T05:55:01.127Z,6.2
2023-03-10T05:56:01.138Z,6.2
2023-03-10T05:57:01.165Z,6.1
2023-03-10T05:58:01.163Z,6.1
2023-03-10T05:59:00.858Z,6.2
2023-03-10T06:00:01.455Z,6.3
2023-03-10T06:01:01.271Z,6.3
2023-03-10T06:02:01.057Z,6.3
2023-03-10T06:03:01.148Z,6.3
2023-03-10T06:04:03.184Z,6.2
2023-03-10T06:05:01.843Z,6.2
2023-03-10T06:06:01.126Z,6.2
2023-03-10T06:07:01.089Z,6.2
2023-03-10T06:08:01.111Z,6.2
2023-03-10T06:09:06.426Z,6.2
2023-03-10T06:10:02.221Z,6.2
2023-03-10T06:11:02.346Z,6.3
2023-03-10T06:12:02.040Z,6.3
2023-03-10T06:13:02.042Z,6.3
2023-03-10T06:14:08.937Z,6.2
2023-03-10T06:15:01.182Z,6.3
2023-03-10T06:16:01.249Z,6.3
2023-03-10T06:17:01.347Z,6.3
2023-03-10T06:18:01.707Z,6.3
2023-03-10T06:19:10.897Z,6.3
2023-03-10T06:20:01.470Z,6.4
2023-03-10T06:21:01.570Z,6.4
2023-03-10T06:22:01.139Z,6.4
2023-03-10T06:23:01.092Z,6.5
2023-03-10T06:24:13.780Z,6.5
2023-03-10T06:25:01.055Z,6.5
2023-03-10T06:26:01.100Z,6.5
2023-03-10T06:27:01.157Z,6.5
2023-03-10T06:28:01.138Z,6.5
2023-03-10T06:29:16.173Z,6.6
2023-03-10T06:30:01.959Z,6.6
2023-03-10T06:31:02.095Z,6.6
2023-03-10T06:32:01.707Z,6.6
2023-03-10T06:33:01.265Z,6.7
2023-03-10T06:34:04.233Z,6.7
2023-03-10T06:35:03.108Z,6.7
2023-03-10T06:36:02.686Z,6.7
2023-03-10T06:37:01.203Z,6.8
2023-03-10T06:38:01.216Z,6.8
2023-03-10T06:39:01.277Z,6.8
2023-03-10T06:40:03.985Z,6.8
2023-03-10T06:41:02.015Z,6.8
2023-03-10T06:42:01.420Z,6.8
2023-03-10T06:43:02.432Z,6.8
2023-03-10T06:44:01.817Z,6.9
2023-03-10T06:45:01.299Z,6.9
2023-03-10T06:46:01.570Z,7
2023-03-10T06:47:01.293Z,7
2023-03-10T06:48:02.225Z,7
2023-03-10T06:49:02.239Z,7
2023-03-10T06:50:01.367Z,7
2023-03-10T06:51:02.435Z,7
2023-03-10T06:52:01.172Z,7
2023-03-10T06:53:01.066Z,7
2023-03-10T06:54:01.087Z,7
2023-03-10T06:55:01.505Z,7
2023-03-10T06:56:01.108Z,7
2023-03-10T06:57:01.123Z,7
2023-03-10T06:58:01.121Z,7.1
2023-03-10T06:59:01.143Z,7.1
2023-03-10T07:00:01.129Z,7.1
2023-03-10T07:01:01.219Z,7.1
2023-03-10T07:02:01.139Z,7.1
2023-03-10T07:03:01.411Z,7.1
2023-03-10T07:04:01.463Z,7.1
2023-03-10T07:05:03.010Z,7.1
2023-03-10T07:06:01.238Z,7.1
2023-03-10T07:07:01.169Z,7.1
2023-03-10T07:08:01.070Z,7.2
2023-03-10T07:09:01.108Z,7.2
2023-03-10T07:10:01.775Z,7.2
2023-03-10T07:11:01.086Z,7.2
2023-03-10T07:12:01.506Z,7.2
2023-03-10T07:13:01.210Z,7.2
2023-03-10T07:14:01.106Z,7.1
2023-03-10T07:15:01.857Z,7.2
2023-03-10T07:16:02.033Z,7.2
2023-03-10T07:17:01.203Z,7.3
2023-03-10T07:18:01.132Z,7.3
2023-03-10T07:19:01.138Z,7.3
2023-03-10T07:20:01.140Z,7.3
2023-03-10T07:21:01.485Z,7.3
2023-03-10T07:22:01.511Z,7.3
2023-03-10T07:23:01.256Z,7.3
2023-03-10T07:24:01.984Z,7.3
2023-03-10T07:25:02.898Z,7.3
2023-03-10T07:26:01.068Z,7.3
2023-03-10T07:27:01.081Z,7.3
2023-03-10T07:28:01.544Z,7.3
2023-03-10T07:29:01.115Z,7.3
2023-03-10T07:30:01.129Z,7.3
2023-03-10T07:31:01.148Z,7.3
2023-03-10T07:32:01.110Z,7.3
2023-03-10T07:33:01.266Z,7.3
2023-03-10T07:34:01.271Z,7.3
2023-03-10T07:35:01.179Z,7.3
2023-03-10T07:36:01.221Z,7.3
2023-03-10T07:37:01.142Z,7.3
2023-03-10T07:38:01.143Z,7.3
2023-03-10T07:39:01.047Z,7.3
2023-03-10T07:40:00.759Z,7.3
2023-03-10T07:41:02.030Z,7.3
2023-03-10T07:42:01.451Z,7.3
2023-03-10T07:43:00.899Z,7.3
2023-03-10T07:44:00.584Z,7.3
2023-03-10T07:45:00.787Z,7.4
2023-03-10T07:46:00.583Z,7.4
2023-03-10T07:47:00.283Z,7.4
2023-03-10T07:47:59.950Z,7.5
2023-03-10T07:48:59.567Z,7.5
2023-03-10T07:50:01.387Z,7.4
2023-03-10T07:51:04.582Z,7.4
2023-03-10T07:52:01.134Z,7.4
2023-03-10T07:53:02.029Z,7.4
2023-03-10T07:54:00.833Z,7.4
2023-03-10T07:55:04.531Z,7.5
2023-03-10T07:56:01.501Z,7.5
2023-03-10T07:57:01.168Z,7.5
2023-03-10T07:58:01.069Z,7.5
2023-03-10T07:59:01.487Z,7.5
2023-03-10T08:00:07.609Z,7.5
2023-03-10T08:01:01.864Z,7.5
2023-03-10T08:02:02.022Z,7.5
2023-03-10T08:03:01.295Z,7.5
2023-03-10T08:04:01.273Z,7.6
2023-03-10T08:05:10.489Z,7.6
2023-03-10T08:06:04.684Z,7.6
2023-03-10T08:07:01.445Z,7.6
2023-03-10T08:08:01.604Z,7.6
2023-03-10T08:09:01.262Z,7.6
2023-03-10T08:10:12.844Z,7.6
2023-03-10T08:11:02.871Z,7.6
2023-03-10T08:12:01.180Z,7.6
2023-03-10T08:13:01.063Z,7.6
2023-03-10T08:14:01.243Z,7.7
2023-03-10T08:15:16.211Z,7.7
2023-03-10T08:16:02.162Z,7.7
2023-03-10T08:17:01.208Z,7.8
2023-03-10T08:18:01.095Z,7.8
2023-03-10T08:19:01.115Z,7.8
2023-03-10T08:20:01.114Z,7.8
2023-03-10T08:21:01.116Z,7.8
2023-03-10T08:22:01.126Z,7.8
2023-03-10T08:23:01.541Z,7.8
2023-03-10T08:24:01.129Z,7.9
2023-03-10T08:25:01.146Z,7.9
2023-03-10T08:26:01.433Z,7.9
2023-03-10T08:27:01.149Z,8
2023-03-10T08:28:01.157Z,8
2023-03-10T08:29:01.164Z,8
2023-03-10T08:30:01.072Z,8
2023-03-10T08:31:05.321Z,8
2023-03-10T08:32:01.243Z,8
2023-03-10T08:33:01.232Z,8.1
2023-03-10T08:34:01.090Z,8.1
2023-03-10T08:35:01.113Z,8.1
2023-03-10T08:36:01.262Z,8.1
2023-03-10T08:37:01.118Z,8.1
2023-03-10T08:38:01.110Z,8.1
2023-03-10T08:39:01.146Z,8.1
2023-03-10T08:40:01.859Z,8.1
2023-03-10T08:41:01.444Z,8.2
2023-03-10T08:42:01.293Z,8.2
2023-03-10T08:43:01.523Z,8.2
2023-03-10T08:44:01.145Z,8.3
2023-03-10T08:45:02.008Z,8.3
2023-03-10T08:46:01.163Z,8.3
2023-03-10T08:47:01.249Z,8.3
2023-03-10T08:48:01.783Z,8.3
2023-03-10T08:49:02.621Z,8.3
2023-03-10T08:50:01.526Z,8.3
2023-03-10T08:51:01.498Z,8.3
2023-03-10T08:52:01.215Z,8.4
2023-03-10T08:53:01.235Z,8.4
2023-03-10T08:54:01.129Z,8.4
2023-03-10T08:55:01.144Z,8.4
2023-03-10T08:56:01.132Z,8.4
2023-03-10T08:57:01.137Z,8.5
2023-03-10T08:58:01.148Z,8.5
2023-03-10T08:59:01.184Z,8.5
2023-03-10T09:00:01.207Z,8.5
2023-03-10T09:01:01.285Z,8.5
2023-03-10T09:02:02.250Z,8.6
2023-03-10T09:03:01.117Z,8.6
2023-03-10T09:04:00.874Z,8.6
2023-03-10T09:05:01.091Z,8.6
2023-03-10T09:06:01.060Z,8.6
2023-03-10T09:07:01.102Z,8.6
2023-03-10T09:08:01.082Z,8.7
2023-03-10T09:09:01.139Z,8.7
2023-03-10T09:10:01.129Z,8.7
2023-03-10T09:11:01.057Z,8.7
2023-03-10T09:12:01.514Z,8.8
2023-03-10T09:13:13.363Z,8.8
2023-03-10T09:14:01.571Z,8.8
2023-03-10T09:15:01.152Z,8.8
2023-03-10T09:16:01.203Z,8.8
2023-03-10T09:17:01.432Z,8.9
2023-03-10T09:18:01.995Z,8.9
2023-03-10T09:19:01.095Z,9
2023-03-10T09:20:01.113Z,9
2023-03-10T09:21:01.466Z,9
2023-03-10T09:22:04.216Z,9
2023-03-10T09:23:01.090Z,9
2023-03-10T09:24:00.768Z,9.1
2023-03-10T09:25:01.450Z,9.1
2023-03-10T09:26:02.120Z,9.1
2023-03-10T09:27:01.116Z,9.1
2023-03-10T09:28:01.125Z,9.1
2023-03-10T09:29:01.124Z,9.1
2023-03-10T09:30:01.639Z,9.1
2023-03-10T09:31:02.205Z,9.1
2023-03-10T09:32:01.172Z,9.2
2023-03-10T09:33:02.757Z,9.2
2023-03-10T09:34:01.457Z,9.2
2023-03-10T09:35:01.827Z,9.2
2023-03-10T09:36:08.431Z,9.3
2023-03-10T09:37:01.053Z,9.3
2023-03-10T09:38:01.085Z,9.3
2023-03-10T09:39:01.239Z,9.4
2023-03-10T09:40:01.271Z,9.5
2023-03-10T09:41:01.805Z,9.5
2023-03-10T09:42:01.131Z,9.6
2023-03-10T09:43:01.180Z,9.7
2023-03-10T09:44:00.907Z,9.8
2023-03-10T09:45:01.139Z,9.8
2023-03-10T09:46:05.041Z,9.9
2023-03-10T09:47:01.338Z,10
2023-03-10T09:48:03.197Z,10
2023-03-10T09:49:02.188Z,10
2023-03-10T09:50:01.281Z,10
2023-03-10T09:51:08.453Z,10.1
2023-03-10T09:52:01.066Z,10.1
2023-03-10T09:53:01.109Z,10.1
2023-03-10T09:54:01.289Z,10.2
2023-03-10T09:55:01.454Z,10.2
2023-03-10T09:56:13.091Z,10.3
2023-03-10T09:57:02.030Z,10.3
2023-03-10T09:58:03.878Z,10.3
2023-03-10T09:59:01.143Z,10.3
2023-03-10T10:00:01.123Z,10.3
2023-03-10T10:01:16.671Z,10.3
2023-03-10T10:02:02.589Z,10.4
2023-03-10T10:03:01.525Z,10.4
2023-03-10T10:04:02.525Z,10.4
2023-03-10T10:05:03.774Z,10.4
2023-03-10T10:06:01.565Z,10.5
2023-03-10T10:07:01.079Z,10.5
2023-03-10T10:08:01.359Z,10.5
2023-03-10T10:09:05.095Z,10.5
2023-03-10T10:10:01.481Z,10.5
2023-03-10T10:11:01.817Z,10.6
2023-03-10T10:12:01.782Z,10.6
2023-03-10T10:13:02.443Z,10.6
2023-03-10T10:14:01.779Z,10.6
2023-03-10T10:15:01.181Z,10.6
2023-03-10T10:16:21.258Z,10.7
2023-03-10T10:17:02.121Z,10.8
2023-03-10T10:18:12.083Z,10.8
2023-03-10T10:19:01.976Z,10.8
2023-03-10T10:20:01.240Z,10.8
2023-03-10T10:21:01.150Z,10.8
2023-03-10T10:22:01.166Z,10.8
2023-03-10T10:23:01.408Z,10.8
2023-03-10T10:24:00.868Z,10.8
2023-03-10T10:25:01.192Z,10.9
2023-03-10T10:26:02.674Z,11
2023-03-10T10:27:01.098Z,11
2023-03-10T10:28:01.446Z,11
2023-03-10T10:29:01.109Z,11
2023-03-10T10:30:01.146Z,11
2023-03-10T10:31:02.116Z,11.1
2023-03-10T10:32:01.531Z,11.1
2023-03-10T10:33:02.044Z,11.1
2023-03-10T10:34:01.351Z,11.2
2023-03-10T10:35:01.078Z,11.2
2023-03-10T10:36:01.135Z,11.2
2023-03-10T10:37:02.200Z,11.3
2023-03-10T10:38:01.168Z,11.3
2023-03-10T10:39:03.964Z,11.4
2023-03-10T10:40:01.455Z,11.4
2023-03-10T10:41:01.489Z,11.5
2023-03-10T10:42:02.265Z,11.5
2023-03-10T10:43:02.316Z,11.6
2023-03-10T10:44:02.006Z,11.6
2023-03-10T10:45:01.316Z,11.7
2023-03-10T10:46:02.248Z,11.8
2023-03-10T10:47:01.118Z,11.8
2023-03-10T10:48:01.128Z,11.8
2023-03-10T10:49:01.367Z,11.9
2023-03-10T10:50:01.283Z,11.9
2023-03-10T10:51:01.138Z,11.9
2023-03-10T10:52:01.167Z,11.9
2023-03-10T10:53:01.156Z,11.9
2023-03-10T10:54:01.167Z,11.9
2023-03-10T10:55:01.194Z,11.9
2023-03-10T10:56:01.091Z,11.9
2023-03-10T10:57:01.099Z,11.9
2023-03-10T10:58:01.893Z,11.9
2023-03-10T10:59:01.086Z,11.9
2023-03-10T11:00:01.084Z,11.9
2023-03-10T11:01:01.245Z,11.9
2023-03-10T11:02:01.354Z,11.9
2023-03-10T11:03:01.128Z,11.9
2023-03-10T11:04:01.150Z,12
2023-03-10T11:05:01.432Z,12
2023-03-10T11:06:02.587Z,12
2023-03-10T11:07:01.520Z,12
2023-03-10T11:08:01.154Z,12.1
2023-03-10T11:09:01.098Z,12.1
2023-03-10T11:10:01.092Z,12.1
2023-03-10T11:11:01.123Z,12.1
2023-03-10T11:12:01.272Z,12.2
2023-03-10T11:13:01.870Z,12.2
2023-03-10T11:14:01.550Z,12.2
2023-03-10T11:15:00.624Z,12.2
2023-03-10T11:16:00.718Z,12.3
2023-03-10T11:17:01.781Z,12.3
2023-03-10T11:18:01.128Z,12.3
2023-03-10T11:19:01.140Z,12.3
2023-03-10T11:20:01.247Z,12.4
2023-03-10T11:21:01.956Z,12.4
2023-03-10T11:22:05.836Z,12.4
2023-03-10T11:23:01.460Z,12.4
2023-03-10T11:24:01.958Z,12.3
2023-03-10T11:25:01.168Z,12.3
2023-03-10T11:26:01.177Z,12.3
2023-03-10T11:27:08.616Z,12.4
2023-03-10T11:28:01.164Z,12.3
2023-03-10T11:29:01.187Z,12.4
2023-03-10T11:30:01.164Z,12.4
2023-03-10T11:31:02.057Z,12.4
2023-03-10T11:32:11.225Z,12.5
2023-03-10T11:33:02.509Z,12.4
2023-03-10T11:34:01.099Z,12.4
2023-03-10T11:35:01.147Z,12.4
2023-03-10T11:36:01.407Z,12.5
2023-03-10T11:37:13.557Z,12.5
2023-03-10T11:38:02.674Z,12.5
2023-03-10T11:39:01.139Z,12.5
2023-03-10T11:40:01.157Z,12.5
2023-03-10T11:41:01.154Z,12.5
2023-03-10T11:42:15.894Z,12.4
2023-03-10T11:43:01.514Z,12.4
2023-03-10T11:44:01.556Z,12.4
2023-03-10T11:45:01.249Z,12.4
2023-03-10T11:46:02.324Z,12.4
2023-03-10T11:47:02.066Z,12.5
2023-03-10T11:48:01.115Z,12.5
2023-03-10T11:49:01.110Z,12.5
2023-03-10T11:50:01.078Z,12.5
2023-03-10T11:51:01.083Z,12.5
2023-03-10T11:52:01.727Z,12.5
2023-03-10T11:53:01.533Z,12.5
2023-03-10T11:54:01.240Z,12.5
2023-03-10T11:55:03.953Z,12.5
2023-03-10T11:56:01.891Z,12.5
2023-03-10T11:57:00.990Z,12.4
2023-03-10T11:58:01.162Z,12.4
2023-03-10T11:59:01.180Z,12.3
2023-03-10T12:00:01.189Z,12.3
2023-03-10T12:01:02.535Z,12.2
2023-03-10T12:02:01.452Z,12.1
2023-03-10T12:03:01.148Z,12
2023-03-10T12:04:00.994Z,12
2023-03-10T12:05:01.173Z,11.9
2023-03-10T12:06:01.110Z,11.9
2023-03-10T12:07:01.119Z,11.9
2023-03-10T12:08:01.121Z,11.9
2023-03-10T12:09:01.509Z,11.9
2023-03-10T12:10:01.326Z,11.8
2023-03-10T12:11:02.190Z,11.9
2023-03-10T12:12:01.132Z,11.8
2023-03-10T12:13:01.143Z,11.8
2023-03-10T12:14:01.174Z,11.8
2023-03-10T12:15:01.210Z,11.8
2023-03-10T12:16:01.474Z,11.8
2023-03-10T12:17:01.414Z,11.8
2023-03-10T12:18:01.121Z,11.8
2023-03-10T12:19:01.085Z,11.8
2023-03-10T12:20:01.205Z,11.8
2023-03-10T12:21:01.091Z,11.8
2023-03-10T12:22:01.102Z,11.7
2023-03-10T12:23:01.113Z,11.7
2023-03-10T12:24:00.798Z,11.7
2023-03-10T12:25:00.405Z,11.7
2023-03-10T12:25:59.991Z,11.7
2023-03-10T12:26:59.834Z,11.8
2023-03-10T12:28:01.517Z,11.8
2023-03-10T12:29:01.718Z,11.8
2023-03-10T12:30:01.873Z,11.8
2023-03-10T12:31:01.589Z,11.8
2023-03-10T12:32:02.752Z,11.8
2023-03-10T12:33:01.108Z,11.8
2023-03-10T12:34:01.167Z,11.8
2023-03-10T12:35:01.115Z,11.8
2023-03-10T12:36:01.134Z,11.9
2023-03-10T12:37:00.773Z,12
2023-03-10T12:38:00.528Z,12
2023-03-10T12:39:00.246Z,12
2023-03-10T12:39:59.951Z,12.1
2023-03-10T12:40:59.684Z,12.1
2023-03-10T12:42:01.834Z,12.1
2023-03-10T12:43:01.326Z,12.1
2023-03-10T12:44:01.034Z,12.1
2023-03-10T12:45:00.732Z,12.1
2023-03-10T12:46:00.449Z,12.1
2023-03-10T12:47:00.461Z,12.1
2023-03-10T12:48:00.132Z,12.1
2023-03-10T12:48:59.709Z,12.2
2023-03-10T12:50:01.370Z,12.2
2023-03-10T12:51:01.202Z,12.2
2023-03-10T12:52:01.200Z,12.3
2023-03-10T12:53:01.084Z,12.3
2023-03-10T12:54:01.111Z,12.3
2023-03-10T12:55:01.529Z,12.3
2023-03-10T12:56:01.119Z,12.3
2023-03-10T12:57:01.115Z,12.4
2023-03-10T12:58:01.053Z,12.4
2023-03-10T12:59:01.159Z,12.5
2023-03-10T13:00:01.524Z,12.5
2023-03-10T13:01:01.269Z,12.5
2023-03-10T13:02:01.212Z,12.5
2023-03-10T13:03:01.452Z,12.5
2023-03-10T13:04:01.895Z,12.5
2023-03-10T13:05:01.115Z,12.5
2023-03-10T13:06:01.136Z,12.5
2023-03-10T13:07:01.064Z,12.5
2023-03-10T13:08:04.309Z,12.6
2023-03-10T13:09:01.388Z,12.6
2023-03-10T13:10:01.182Z,12.6
2023-03-10T13:11:01.241Z,12.7
2023-03-10T13:12:01.501Z,12.7
2023-03-10T13:13:07.705Z,12.8
2023-03-10T13:14:02.156Z,12.8
2023-03-10T13:15:01.461Z,12.8
2023-03-10T13:16:01.484Z,13
2023-03-10T13:17:01.145Z,13
2023-03-10T13:18:10.688Z,13.1
2023-03-10T13:19:01.278Z,13.1
2023-03-10T13:20:01.380Z,13.2
2023-03-10T13:21:01.625Z,13.3
2023-03-10T13:22:01.556Z,13.3
2023-03-10T13:23:13.201Z,13.3
2023-03-10T13:24:01.339Z,13.3
2023-03-10T13:25:01.152Z,13.3
2023-03-10T13:26:01.156Z,13.3
2023-03-10T13:27:01.109Z,13.3
2023-03-10T13:28:15.657Z,13.3
2023-03-10T13:29:01.298Z,13.3
2023-03-10T13:30:03.992Z,13.4
2023-03-10T13:31:02.349Z,13.4
2023-03-10T13:32:01.325Z,13.5
2023-03-10T13:33:02.625Z,13.5
2023-03-10T13:34:01.840Z,13.5
2023-03-10T13:35:01.427Z,13.5
2023-03-10T13:36:02.706Z,13.5
2023-03-10T13:37:01.173Z,13.5
2023-03-10T13:38:01.145Z,13.6
2023-03-10T13:39:01.124Z,13.6
2023-03-10T13:40:01.813Z,13.6
2023-03-10T13:41:01.288Z,13.6
2023-03-10T13:42:02.007Z,13.6
2023-03-10T13:43:02.009Z,13.6